Time;durP1;ratioP1;P1;durP2;ratioP2;P2;SDS_P1;SDS_P2;PMS_P1;PMS_P2;Temp;Humidity;BMP_temperature;BMP_pressure;BME280_temperature;BME280_humidity;BME280_pressure;Samples;Min_cycle;Max_cycle;Signal;HPM_P1;HPM_P2
2021/11/05 00:00:24;;;;;;;29.38;16.55;;;10.10;99.90;;;;;;5011853;28;20045;-69
2021/11/05 00:02:54;;;;;;;30.50;17.23;;;10.10;99.90;;;;;;5011974;28;20125;-70
2021/11/05 00:05:21;;;;;;;27.52;17.13;;;10.10;99.90;;;;;;5012141;28;20105;-70
2021/11/05 00:07:47;;;;;;;33.38;17.80;;;10.10;99.90;;;;;;5011708;28;20046;-70
2021/11/05 00:10:12;;;;;;;34.47;17.73;;;10.10;99.90;;;;;;5012416;28;20030;-71
2021/11/05 00:12:39;;;;;;;28.63;17.00;;;10.10;99.90;;;;;;5011901;28;20053;-70
2021/11/05 00:15:05;;;;;;;27.65;16.95;;;10.00;99.90;;;;;;5011631;28;20038;-69
2021/11/05 00:17:31;;;;;;;31.75;18.67;;;10.00;99.90;;;;;;5011791;28;20061;-70
2021/11/05 00:19:56;;;;;;;32.58;17.58;;;10.00;99.90;;;;;;5011701;28;20391;-70
2021/11/05 00:22:22;;;;;;;29.38;16.90;;;10.10;99.90;;;;;;5012277;28;20029;-69
2021/11/05 00:24:48;;;;;;;32.63;17.48;;;10.00;99.90;;;;;;5011521;28;20564;-69
2021/11/05 00:27:13;;;;;;;27.73;16.77;;;10.10;99.90;;;;;;5011525;28;20040;-70
2021/11/05 00:29:41;;;;;;;33.90;18.02;;;10.00;99.90;;;;;;5010389;28;20057;-70
2021/11/05 00:32:07;;;;;;;30.02;17.80;;;10.00;99.90;;;;;;4993603;28;20034;-71
2021/11/05 00:34:32;;;;;;;27.48;17.10;;;10.10;99.90;;;;;;5012118;28;20034;-70
2021/11/05 00:36:58;;;;;;;27.85;16.85;;;10.10;99.90;;;;;;5011679;28;20042;-70
2021/11/05 00:39:24;;;;;;;33.03;16.75;;;10.10;99.90;;;;;;5011418;28;20022;-70
2021/11/05 00:41:49;;;;;;;30.27;16.85;;;10.10;99.90;;;;;;5011450;28;20061;-70
2021/11/05 00:44:15;;;;;;;28.23;16.23;;;10.00;99.90;;;;;;5011306;28;20407;-71
2021/11/05 00:46:40;;;;;;;32.00;17.10;;;9.90;99.90;;;;;;5011349;28;20026;-70
2021/11/05 00:49:06;;;;;;;29.55;17.33;;;10.10;99.90;;;;;;5011491;28;20034;-69
2021/11/05 00:51:32;;;;;;;27.17;16.17;;;10.00;99.90;;;;;;4993950;28;20070;-70
2021/11/05 00:53:57;;;;;;;35.22;17.88;;;10.10;99.90;;;;;;5011047;28;20041;-70
2021/11/05 00:56:23;;;;;;;32.92;17.73;;;10.00;99.90;;;;;;5011308;28;20087;-70
2021/11/05 00:58:48;;;;;;;31.50;17.42;;;9.90;99.90;;;;;;5011339;28;20061;-69
2021/11/05 01:01:14;;;;;;;31.98;16.95;;;10.00;99.90;;;;;;5011720;28;20030;-69
2021/11/05 01:03:40;;;;;;;32.42;17.55;;;10.00;99.90;;;;;;5011106;28;20104;-70
2021/11/05 01:06:05;;;;;;;32.53;18.13;;;10.00;99.90;;;;;;4993841;28;20046;-69
2021/11/05 01:08:31;;;;;;;31.13;17.25;;;10.10;99.90;;;;;;5011329;28;20644;-69
2021/11/05 01:10:56;;;;;;;29.05;16.40;;;10.10;99.90;;;;;;5011174;28;20030;-70
2021/11/05 01:13:22;;;;;;;27.33;16.52;;;10.10;99.90;;;;;;5011602;28;20057;-70
2021/11/05 01:15:48;;;;;;;29.52;16.88;;;10.20;99.90;;;;;;5011019;28;20029;-69
2021/11/05 01:18:13;;;;;;;30.63;17.30;;;10.10;99.90;;;;;;5011138;28;20483;-70
2021/11/05 01:20:39;;;;;;;30.80;18.33;;;10.00;99.90;;;;;;5010980;28;20080;-70
2021/11/05 01:23:07;;;;;;;29.52;17.00;;;10.00;99.90;;;;;;5011017;28;20100;-71
2021/11/05 01:25:32;;;;;;;34.20;17.98;;;10.00;99.90;;;;;;5011341;28;20026;-70
2021/11/05 01:27:58;;;;;;;34.80;17.98;;;10.10;99.90;;;;;;5010879;28;20104;-70
2021/11/05 01:30:24;;;;;;;30.42;16.83;;;10.10;99.90;;;;;;5010873;28;20371;-70
2021/11/05 01:32:50;;;;;;;31.02;17.90;;;9.90;99.90;;;;;;5011009;28;20034;-69
2021/11/05 01:35:16;;;;;;;30.55;17.85;;;9.90;99.90;;;;;;5010875;28;20443;-70
2021/11/05 01:37:42;;;;;;;33.40;18.60;;;9.90;99.90;;;;;;5011240;28;20037;-70
2021/11/05 01:40:09;;;;;;;33.08;19.25;;;9.90;99.90;;;;;;5012810;28;20371;-70
2021/11/05 01:42:36;;;;;;;30.50;17.85;;;10.00;99.90;;;;;;5013764;28;20533;-70
2021/11/05 01:45:05;;;;;;;29.58;17.50;;;9.90;99.90;;;;;;5013456;28;20095;-70
2021/11/05 01:47:30;;;;;;;32.58;18.27;;;10.00;99.90;;;;;;5014771;28;20167;-71
2021/11/05 01:49:56;;;;;;;28.20;17.33;;;10.10;99.90;;;;;;5014680;28;20121;-71
2021/11/05 01:52:21;;;;;;;31.73;18.23;;;10.20;99.90;;;;;;5014941;28;20507;-71
2021/11/05 01:54:48;;;;;;;31.52;18.23;;;9.90;99.90;;;;;;5014557;28;20045;-71
2021/11/05 01:57:13;;;;;;;34.80;18.58;;;9.90;99.90;;;;;;5014307;28;20034;-71
2021/11/05 01:59:39;;;;;;;33.10;18.70;;;9.90;99.90;;;;;;5014370;28;20045;-70
2021/11/05 02:02:08;;;;;;;33.67;19.02;;;10.00;99.90;;;;;;5014199;28;20030;-71
2021/11/05 02:04:35;;;;;;;32.90;19.08;;;10.00;99.90;;;;;;5014284;28;20022;-70
2021/11/05 02:07:01;;;;;;;34.75;18.35;;;10.00;99.90;;;;;;5013482;28;20037;-69
2021/11/05 02:09:29;;;;;;;32.63;18.85;;;10.00;99.90;;;;;;5014211;28;20037;-70
2021/11/05 02:11:57;;;;;;;32.58;18.38;;;10.10;99.90;;;;;;5014237;28;20060;-70
2021/11/05 02:14:25;;;;;;;32.80;19.73;;;10.10;99.90;;;;;;5013739;28;20041;-69
2021/11/05 02:16:53;;;;;;;41.58;19.00;;;10.20;99.90;;;;;;5014271;28;20093;-69
2021/11/05 02:19:21;;;;;;;32.28;18.92;;;10.20;99.90;;;;;;5012949;28;20368;-70
2021/11/05 02:21:48;;;;;;;35.17;20.13;;;10.20;99.90;;;;;;5014055;28;20035;-71
2021/11/05 02:24:15;;;;;;;33.80;19.02;;;10.10;99.90;;;;;;5013973;28;20057;-71
2021/11/05 02:26:43;;;;;;;32.15;18.42;;;10.00;99.90;;;;;;5013913;28;20349;-71
2021/11/05 02:29:08;;;;;;;33.35;19.52;;;10.00;99.90;;;;;;5013673;28;20367;-71
2021/11/05 02:31:34;;;;;;;34.17;18.27;;;10.00;99.90;;;;;;5013867;28;20030;-71
2021/11/05 02:34:00;;;;;;;37.47;19.88;;;9.90;99.90;;;;;;5013856;28;20116;-71
2021/11/05 02:36:26;;;;;;;31.92;18.60;;;9.90;99.90;;;;;;5026786;28;20092;-71
2021/11/05 02:38:53;;;;;;;36.20;19.85;;;10.00;99.90;;;;;;5033350;28;20038;-70
2021/11/05 02:41:22;;;;;;;36.92;20.50;;;9.80;99.90;;;;;;5033299;28;20396;-70
2021/11/05 02:43:49;;;;;;;40.50;19.95;;;9.90;99.90;;;;;;5033186;28;20021;-71
2021/11/05 02:46:15;;;;;;;36.35;18.73;;;9.90;99.90;;;;;;5033761;28;20041;-71
2021/11/05 02:48:41;;;;;;;34.55;19.08;;;9.90;99.90;;;;;;5033182;28;20117;-71
2021/11/05 02:51:09;;;;;;;38.95;20.33;;;9.90;99.90;;;;;;5031989;28;20053;-70
2021/11/05 02:53:35;;;;;;;38.13;20.35;;;10.00;99.90;;;;;;5033079;28;20113;-70
2021/11/05 02:56:00;;;;;;;40.67;21.33;;;9.90;99.90;;;;;;5033079;28;20049;-70
2021/11/05 02:58:26;;;;;;;39.60;21.73;;;9.90;99.90;;;;;;5033162;28;20087;-70
2021/11/05 03:00:53;;;;;;;44.90;21.33;;;9.70;99.90;;;;;;5033365;28;20037;-69
2021/11/05 03:03:19;;;;;;;41.78;20.27;;;9.70;99.90;;;;;;5032973;28;20049;-70
2021/11/05 03:05:44;;;;;;;40.53;20.52;;;9.80;99.90;;;;;;5032498;28;20267;-68
2021/11/05 03:08:10;;;;;;;41.15;20.35;;;9.70;99.90;;;;;;5032974;28;20041;-70
2021/11/05 03:10:36;;;;;;;36.80;20.10;;;9.70;99.90;;;;;;5032813;28;20052;-71
2021/11/05 03:13:02;;;;;;;41.15;21.35;;;9.70;99.90;;;;;;5033040;28;20415;-69
2021/11/05 03:15:28;;;;;;;41.78;20.73;;;9.80;99.90;;;;;;5048076;28;20036;-71
2021/11/05 03:17:54;;;;;;;44.72;20.88;;;9.80;99.90;;;;;;5032737;28;20098;-69
2021/11/05 03:20:21;;;;;;;39.35;20.70;;;9.80;99.90;;;;;;5032631;28;20025;-70
2021/11/05 03:22:47;;;;;;;43.60;21.35;;;9.70;99.90;;;;;;5032489;28;20084;-73
2021/11/05 03:25:13;;;;;;;35.15;19.75;;;9.60;99.90;;;;;;5032027;28;20037;-71
2021/11/05 03:27:39;;;;;;;37.78;20.40;;;9.70;99.90;;;;;;5032441;28;20083;-70
2021/11/05 03:30:08;;;;;;;38.45;19.38;;;9.80;99.90;;;;;;5032530;28;20125;-70
2021/11/05 03:32:35;;;;;;;39.38;19.95;;;9.70;99.90;;;;;;5032439;28;20056;-70
2021/11/05 03:35:01;;;;;;;42.88;20.50;;;9.60;99.90;;;;;;5032157;28;20037;-70
2021/11/05 03:37:27;;;;;;;40.90;19.65;;;9.60;99.90;;;;;;5032492;28;20034;-71
2021/11/05 03:39:52;;;;;;;41.53;20.73;;;9.60;99.90;;;;;;5032201;28;20037;-69
2021/11/05 03:42:18;;;;;;;36.50;19.40;;;9.70;99.90;;;;;;5030890;28;20136;-69
2021/11/05 03:44:43;;;;;;;41.03;21.00;;;9.70;99.90;;;;;;5032060;28;20117;-69
2021/11/05 03:47:09;;;;;;;37.25;19.52;;;9.80;99.90;;;;;;5032032;28;20052;-70
2021/11/05 03:49:35;;;;;;;41.40;21.65;;;9.70;99.90;;;;;;5031896;28;20117;-71
2021/11/05 03:52:01;;;;;;;43.40;21.63;;;9.70;99.90;;;;;;5032463;28;20029;-70
2021/11/05 03:54:26;;;;;;;44.05;20.85;;;9.70;99.90;;;;;;5031931;28;20061;-70
2021/11/05 03:56:52;;;;;;;36.08;19.38;;;9.70;99.90;;;;;;5031936;28;20063;-69
2021/11/05 03:59:18;;;;;;;44.92;21.38;;;9.60;99.90;;;;;;5031737;28;20672;-71
2021/11/05 04:01:44;;;;;;;40.53;20.38;;;9.60;99.90;;;;;;5031830;28;20091;-70
2021/11/05 04:04:10;;;;;;;42.63;21.58;;;9.70;99.90;;;;;;5031680;28;20444;-70
2021/11/05 04:06:35;;;;;;;46.50;20.88;;;9.70;99.90;;;;;;5031708;28;20061;-71
2021/11/05 04:09:02;;;;;;;42.65;19.95;;;9.70;99.90;;;;;;5031555;28;20087;-70
2021/11/05 04:11:27;;;;;;;38.95;19.23;;;9.70;99.90;;;;;;5031706;28;20115;-71
2021/11/05 04:13:53;;;;;;;45.00;21.13;;;9.80;99.90;;;;;;5031572;28;20463;-71
2021/11/05 04:16:19;;;;;;;40.05;19.38;;;9.70;99.90;;;;;;5031850;28;20017;-71
2021/11/05 04:18:44;;;;;;;38.70;19.63;;;9.70;99.90;;;;;;5031648;28;20034;-71
2021/11/05 04:21:10;;;;;;;44.95;20.98;;;9.60;99.90;;;;;;5031592;28;20025;-71
2021/11/05 04:23:36;;;;;;;37.53;19.48;;;9.80;99.90;;;;;;5030323;28;20053;-70
2021/11/05 04:26:03;;;;;;;41.10;18.88;;;9.60;99.90;;;;;;5031411;28;20136;-70
2021/11/05 04:28:29;;;;;;;39.50;19.58;;;9.60;99.90;;;;;;5031926;28;20028;-71
2021/11/05 04:30:54;;;;;;;42.60;20.23;;;9.50;99.90;;;;;;5031526;28;20030;-71
2021/11/05 04:33:20;;;;;;;46.70;21.48;;;9.60;99.90;;;;;;5031258;28;20081;-71
2021/11/05 04:35:46;;;;;;;38.03;19.85;;;9.50;99.90;;;;;;5031224;28;20041;-72
2021/11/05 04:38:12;;;;;;;45.42;21.02;;;9.60;99.90;;;;;;5031186;28;20065;-71
2021/11/05 04:40:38;;;;;;;42.40;21.52;;;9.50;99.90;;;;;;5046904;28;20357;-71
2021/11/05 04:43:04;;;;;;;45.30;20.50;;;9.60;99.90;;;;;;5031727;28;20473;-70
2021/11/05 04:45:30;;;;;;;43.70;20.80;;;9.70;99.90;;;;;;5031496;28;20068;-70
2021/11/05 04:47:56;;;;;;;43.75;20.23;;;9.60;99.90;;;;;;5031217;28;20082;-70
2021/11/05 04:50:21;;;;;;;49.00;20.08;;;9.50;99.90;;;;;;5031009;28;20674;-70
2021/11/05 04:52:48;;;;;;;42.55;19.67;;;9.60;99.90;;;;;;5030969;28;20026;-71
2021/11/05 04:55:15;;;;;;;42.42;19.42;;;9.70;99.90;;;;;;5031456;28;20049;-71
2021/11/05 04:57:41;;;;;;;41.47;20.08;;;9.60;99.90;;;;;;5029988;28;20160;-71
2021/11/05 05:00:07;;;;;;;44.13;20.73;;;9.60;99.90;;;;;;5046598;28;20172;-70
2021/11/05 05:02:33;;;;;;;41.75;19.92;;;9.50;99.90;;;;;;5031156;28;20513;-70
2021/11/05 05:04:59;;;;;;;39.30;19.40;;;9.50;99.90;;;;;;5029773;28;20057;-70
2021/11/05 05:07:24;;;;;;;41.85;20.02;;;9.60;99.90;;;;;;5031344;28;20135;-70
2021/11/05 05:09:50;;;;;;;42.60;19.80;;;9.60;99.90;;;;;;5030675;28;20040;-70
2021/11/05 05:12:16;;;;;;;44.67;19.60;;;9.50;99.90;;;;;;5031105;28;20391;-71
2021/11/05 05:14:41;;;;;;;45.83;20.48;;;9.60;99.90;;;;;;5031790;28;20040;-71
2021/11/05 05:17:07;;;;;;;41.60;19.27;;;9.70;99.90;;;;;;5034937;28;20029;-71
2021/11/05 05:19:33;;;;;;;49.92;19.63;;;9.60;99.90;;;;;;5035077;28;20025;-71
2021/11/05 05:21:58;;;;;;;44.53;20.65;;;9.60;99.90;;;;;;5035180;28;20047;-71
2021/11/05 05:24:25;;;;;;;41.10;20.40;;;9.60;99.90;;;;;;5034576;28;20467;-70
2021/11/05 05:26:50;;;;;;;43.70;19.58;;;9.50;99.90;;;;;;5034506;28;20036;-69
2021/11/05 05:29:16;;;;;;;45.85;20.70;;;9.40;99.90;;;;;;5034455;28;20042;-71
2021/11/05 05:31:41;;;;;;;40.10;18.67;;;9.50;99.90;;;;;;5034919;28;20584;-70
2021/11/05 05:34:07;;;;;;;45.00;20.58;;;9.60;99.90;;;;;;5035233;28;20646;-70
2021/11/05 05:36:33;;;;;;;45.30;19.25;;;9.50;99.90;;;;;;5034218;28;20378;-71
2021/11/05 05:38:58;;;;;;;42.33;19.85;;;9.60;99.90;;;;;;5034424;28;20029;-70
2021/11/05 05:41:24;;;;;;;37.80;19.42;;;9.70;99.90;;;;;;5034434;28;20029;-70
2021/11/05 05:43:50;;;;;;;46.90;20.48;;;9.60;99.90;;;;;;5034161;28;20067;-70
2021/11/05 05:46:15;;;;;;;36.20;18.35;;;9.60;99.90;;;;;;5034840;28;20378;-70
2021/11/05 05:48:41;;;;;;;46.90;20.83;;;9.60;99.90;;;;;;5034148;28;20040;-69
2021/11/05 05:51:07;;;;;;;38.83;17.10;;;9.60;99.90;;;;;;5034268;28;20146;-69
2021/11/05 05:53:32;;;;;;;41.78;18.60;;;9.70;99.90;;;;;;5034105;28;20116;-70
2021/11/05 05:55:58;;;;;;;42.38;19.52;;;9.70;99.90;;;;;;5032821;28;20040;-71
2021/11/05 05:58:24;;;;;;;43.55;18.95;;;9.70;99.90;;;;;;5034435;28;20452;-71
2021/11/05 06:00:50;;;;;;;40.78;17.38;;;9.70;99.90;;;;;;5033761;28;20041;-71
2021/11/05 06:03:16;;;;;;;35.72;17.85;;;9.60;99.90;;;;;;5033647;28;20036;-71
2021/11/05 06:05:41;;;;;;;39.13;17.90;;;9.80;99.90;;;;;;5032463;28;20029;-70
2021/11/05 06:08:07;;;;;;;36.03;17.85;;;9.70;99.90;;;;;;5033990;28;20041;-71
2021/11/05 06:10:34;;;;;;;37.83;17.77;;;9.80;99.90;;;;;;5033990;28;20095;-72
2021/11/05 06:13:00;;;;;;;38.13;17.13;;;9.70;99.90;;;;;;5034149;28;20143;-70
2021/11/05 06:15:26;;;;;;;40.38;17.92;;;9.70;99.90;;;;;;5033332;28;20163;-70
2021/11/05 06:17:52;;;;;;;40.50;17.98;;;9.80;99.90;;;;;;5033469;28;20632;-69
2021/11/05 06:20:19;;;;;;;36.90;16.88;;;9.80;99.90;;;;;;5033291;28;20068;-71
2021/11/05 06:22:45;;;;;;;39.80;18.08;;;9.80;99.90;;;;;;5032643;28;20088;-70
2021/11/05 06:25:11;;;;;;;35.80;16.42;;;9.70;99.90;;;;;;5033696;28;20022;-70
2021/11/05 06:27:36;;;;;;;35.45;17.65;;;9.80;99.90;;;;;;5033168;28;20040;-69
2021/11/05 06:30:05;;;;;;;37.72;18.02;;;9.90;99.90;;;;;;5033274;28;20029;-70
2021/11/05 06:32:31;;;;;;;35.17;17.08;;;9.90;99.90;;;;;;5032982;28;20073;-70
2021/11/05 06:34:57;;;;;;;33.55;16.10;;;9.90;99.90;;;;;;5033009;28;20030;-71
2021/11/05 06:37:23;;;;;;;36.42;17.35;;;10.00;99.90;;;;;;5033412;28;20072;-70
2021/11/05 06:39:49;;;;;;;37.30;17.65;;;10.00;99.90;;;;;;5033131;28;20045;-71
2021/11/05 06:42:20;;;;;;;37.72;17.40;;;9.90;99.90;;;;;;5031900;28;20030;-71
2021/11/05 06:44:49;;;;;;;36.75;18.13;;;10.00;99.90;;;;;;5032884;28;20038;-70
2021/11/05 06:47:15;;;;;;;41.25;18.58;;;9.90;99.90;;;;;;5033118;28;20044;-70
2021/11/05 06:49:41;;;;;;;33.03;18.20;;;10.00;99.90;;;;;;5032551;28;20022;-70
2021/11/05 06:52:07;;;;;;;44.13;18.42;;;9.90;99.90;;;;;;5033064;28;20110;-71
2021/11/05 06:54:35;;;;;;;39.20;18.42;;;9.90;99.90;;;;;;5032123;28;20120;-71
2021/11/05 06:57:00;;;;;;;38.90;18.60;;;9.90;99.90;;;;;;5033073;28;20037;-71
2021/11/05 06:59:26;;;;;;;38.92;18.83;;;10.00;99.90;;;;;;5032816;28;20026;-71
2021/11/05 07:01:52;;;;;;;37.15;18.27;;;9.90;99.90;;;;;;5031493;28;20071;-69
2021/11/05 07:04:18;;;;;;;36.20;16.70;;;9.90;99.90;;;;;;5033119;28;20104;-70
2021/11/05 07:06:46;;;;;;;39.90;18.25;;;9.90;99.90;;;;;;5032449;28;20211;-71
2021/11/05 07:09:15;;;;;;;37.03;17.70;;;9.80;99.90;;;;;;5013125;28;20117;-70
2021/11/05 07:11:41;;;;;;;36.35;18.55;;;9.80;99.90;;;;;;5016460;28;20033;-73
2021/11/05 07:14:08;;;;;;;41.00;19.13;;;9.90;99.90;;;;;;5012779;28;20055;-72
2021/11/05 07:16:34;;;;;;;38.35;19.45;;;9.90;99.90;;;;;;5012601;28;20080;-71
2021/11/05 07:19:00;;;;;;;35.95;18.48;;;9.90;99.90;;;;;;5012921;28;20479;-72
2021/11/05 07:21:26;;;;;;;37.72;18.23;;;9.90;99.90;;;;;;5012677;28;20034;-71
2021/11/05 07:24:00;;;;;;;40.67;18.00;;;9.90;99.90;;;;;;5012489;28;20702;-72
2021/11/05 07:26:28;;;;;;;34.72;17.45;;;10.00;99.90;;;;;;5022429;28;20033;-70
2021/11/05 07:28:53;;;;;;;;;;;10.10;99.90;;;;;;5032412;28;20048;-72
2021/11/05 07:31:19;;;;;;;41.25;18.20;;;10.10;99.90;;;;;;5032429;28;20210;-71
2021/11/05 07:33:44;;;;;;;33.05;17.25;;;10.00;99.90;;;;;;5045833;28;20033;-71
2021/11/05 07:36:10;;;;;;;44.08;19.42;;;10.10;99.90;;;;;;5034047;28;20041;-73
2021/11/05 07:38:36;;;;;;;35.92;17.80;;;10.10;99.90;;;;;;5051476;28;20037;-73
2021/11/05 07:41:02;;;;;;;36.72;18.60;;;10.10;99.90;;;;;;5052025;28;20029;-72
2021/11/05 07:43:27;;;;;;;38.13;18.48;;;10.10;99.90;;;;;;5052330;28;20095;-70
2021/11/05 07:45:53;;;;;;;37.90;18.88;;;10.20;99.90;;;;;;5052304;28;20136;-70
2021/11/05 07:48:19;;;;;;;35.78;17.20;;;10.30;99.90;;;;;;5051495;28;20029;-69
2021/11/05 07:50:44;;;;;;;38.17;17.70;;;10.10;99.90;;;;;;5034280;28;20025;-72
2021/11/05 07:53:10;;;;;;;35.25;18.25;;;10.20;99.90;;;;;;5051502;28;20489;-71
2021/11/05 07:55:35;;;;;;;39.17;18.35;;;10.20;99.90;;;;;;5051811;28;20021;-70
2021/11/05 07:58:01;;;;;;;37.67;17.50;;;10.30;99.90;;;;;;5034505;28;20050;-72
2021/11/05 08:00:27;;;;;;;33.28;16.40;;;10.30;99.90;;;;;;5034008;28;20112;-72
2021/11/05 08:02:53;;;;;;;35.17;16.88;;;10.30;99.90;;;;;;5051082;28;20087;-71
2021/11/05 08:05:19;;;;;;;36.55;16.75;;;10.30;99.90;;;;;;5051919;28;20025;-73
2021/11/05 08:07:45;;;;;;;35.78;16.65;;;10.40;99.90;;;;;;5051507;28;20383;-71
2021/11/05 08:10:14;;;;;;;36.15;17.13;;;10.40;99.90;;;;;;5051908;28;20083;-70
2021/11/05 08:12:39;;;;;;;31.88;16.20;;;10.40;99.90;;;;;;5051557;28;20029;-72
2021/11/05 08:15:06;;;;;;;34.70;16.85;;;10.50;99.90;;;;;;5051342;28;20043;-71
2021/11/05 08:17:31;;;;;;;35.13;17.27;;;10.40;99.90;;;;;;5051189;28;20029;-71
2021/11/05 08:19:57;;;;;;;35.25;17.17;;;10.40;99.90;;;;;;5051377;28;20071;-69
2021/11/05 08:22:22;;;;;;;33.53;15.00;;;10.50;99.90;;;;;;5051470;28;20032;-71
2021/11/05 08:24:51;;;;;;;30.88;14.80;;;10.50;99.90;;;;;;5051224;28;20033;-71
2021/11/05 08:27:17;;;;;;;34.78;15.65;;;10.50;99.90;;;;;;5051176;28;20037;-71
2021/11/05 08:29:43;;;;;;;35.20;17.02;;;10.40;99.90;;;;;;5050969;28;20037;-70
2021/11/05 08:32:09;;;;;;;31.52;14.93;;;10.60;99.90;;;;;;5050858;28;20032;-70
2021/11/05 08:34:35;;;;;;;31.40;16.02;;;10.70;99.90;;;;;;5033165;28;20557;-70
2021/11/05 08:37:00;;;;;;;31.58;14.35;;;10.60;99.90;;;;;;5033656;28;20516;-71
2021/11/05 08:39:26;;;;;;;34.17;16.00;;;10.50;99.90;;;;;;5033373;28;20072;-71
2021/11/05 08:41:52;;;;;;;32.45;15.05;;;10.50;99.90;;;;;;5051005;28;20375;-69
2021/11/05 08:44:17;;;;;;;31.50;14.88;;;10.50;99.90;;;;;;5033490;28;20045;-70
2021/11/05 08:46:43;;;;;;;30.70;15.23;;;10.40;99.90;;;;;;5050353;28;20086;-69
2021/11/05 08:49:12;;;;;;;28.88;14.40;;;10.60;99.90;;;;;;5051349;28;20027;-69
2021/11/05 08:51:41;;;;;;;27.95;13.85;;;10.50;99.90;;;;;;5050828;28;20135;-72
2021/11/05 08:54:08;;;;;;;32.22;15.32;;;10.50;99.90;;;;;;5050734;28;20086;-72
2021/11/05 08:56:33;;;;;;;30.75;14.35;;;10.60;99.90;;;;;;5050750;28;20423;-73
2021/11/05 08:59:00;;;;;;;26.95;13.95;;;10.50;99.90;;;;;;5033037;28;20072;-72
2021/11/05 09:01:26;;;;;;;27.98;13.55;;;10.60;99.90;;;;;;5033262;28;20037;-72
2021/11/05 09:03:52;;;;;;;26.13;13.35;;;10.70;99.90;;;;;;5050636;28;20032;-71
2021/11/05 09:06:18;;;;;;;25.67;12.98;;;10.80;99.90;;;;;;5050545;28;20049;-71
2021/11/05 09:08:44;;;;;;;29.48;13.32;;;10.80;99.90;;;;;;5050650;28;20029;-72
2021/11/05 09:11:11;;;;;;;28.77;13.50;;;10.80;99.90;;;;;;5050463;28;20355;-71
2021/11/05 09:13:36;;;;;;;24.73;12.35;;;10.70;99.90;;;;;;5050568;28;20387;-72
2021/11/05 09:16:06;;;;;;;29.60;13.02;;;10.70;99.90;;;;;;5050568;28;20063;-72
2021/11/05 09:18:32;;;;;;;28.08;12.60;;;10.90;99.90;;;;;;5050387;28;20120;-71
2021/11/05 09:20:59;;;;;;;23.77;12.18;;;11.00;99.90;;;;;;5050795;28;20047;-72
2021/11/05 09:23:24;;;;;;;24.55;11.88;;;11.00;99.90;;;;;;5050494;28;20464;-73
2021/11/05 09:25:51;;;;;;;27.00;12.65;;;11.00;99.90;;;;;;5050555;28;20174;-71
2021/11/05 09:28:16;;;;;;;27.20;12.30;;;11.20;99.90;;;;;;5051019;28;20094;-72
2021/11/05 09:30:42;;;;;;;23.98;11.77;;;11.30;99.90;;;;;;5032828;28;20045;-71
2021/11/05 09:33:07;;;;;;;22.98;11.85;;;11.40;99.90;;;;;;5050369;28;20619;-72
2021/11/05 09:35:33;;;;;;;31.17;12.18;;;11.30;99.70;;;;;;5049898;28;20041;-71
2021/11/05 09:37:59;;;;;;;28.02;11.82;;;11.40;99.70;;;;;;5032756;28;20033;-73
2021/11/05 09:40:26;;;;;;;27.52;13.30;;;11.30;99.80;;;;;;5050660;28;20025;-71
2021/11/05 09:42:53;;;;;;;24.13;11.73;;;11.40;99.90;;;;;;5050213;28;20486;-73
2021/11/05 09:45:20;;;;;;;22.50;11.98;;;11.30;99.50;;;;;;5050227;28;20029;-75
2021/11/05 09:47:48;;;;;;;23.95;11.88;;;11.20;99.60;;;;;;5050009;28;20048;-71
2021/11/05 09:50:17;;;;;;;22.92;11.73;;;11.20;99.70;;;;;;5049078;28;20028;-73
2021/11/05 09:52:45;;;;;;;23.33;11.10;;;11.10;99.60;;;;;;5050072;28;20021;-76
2021/11/05 09:55:11;;;;;;;28.92;11.38;;;11.30;99.90;;;;;;5032539;28;20025;-75
2021/11/05 09:57:37;;;;;;;24.08;12.45;;;11.30;99.60;;;;;;5050139;28;20021;-73
2021/11/05 10:00:05;;;;;;;28.52;11.02;;;11.20;99.60;;;;;;5049934;28;20048;-75
2021/11/05 10:02:30;;;;;;;21.33;10.82;;;11.40;99.80;;;;;;5053469;28;20411;-74
2021/11/05 10:04:58;;;;;;;25.17;10.90;;;11.50;99.40;;;;;;5053484;28;20025;-73
2021/11/05 10:07:25;;;;;;;28.13;11.52;;;11.50;99.50;;;;;;5053767;28;20434;-74
2021/11/05 10:09:53;;;;;;;27.60;12.63;;;11.60;99.40;;;;;;5053318;28;20256;-74
2021/11/05 10:12:21;;;;;;;21.35;11.02;;;11.80;99.20;;;;;;5053481;28;20040;-76
2021/11/05 10:15:08;;;;;;;26.10;10.55;;;11.70;99.20;;;;;;5053548;28;20025;-75
2021/11/05 10:17:35;;;;;;;15.18;8.55;;;11.70;99.20;;;;;;5053603;28;20037;-73
2021/11/05 10:20:09;;;;;;;29.57;14.57;;;11.70;99.10;;;;;;5053217;28;20029;-74
2021/11/05 10:22:51;;;;;;;16.92;9.48;;;11.80;99.20;;;;;;5053049;28;20753;-73
2021/11/05 10:25:21;;;;;;;18.33;8.57;;;12.10;99.10;;;;;;5035987;28;20029;-74
2021/11/05 10:27:48;;;;;;;19.77;8.45;;;12.50;98.70;;;;;;5053110;28;20037;-74
2021/11/05 10:30:14;;;;;;;17.45;8.13;;;12.40;97.90;;;;;;5033446;28;20049;-80
2021/11/05 10:32:54;;;;;;;13.85;7.93;;;13.00;98.30;;;;;;5013263;28;20054;-75
2021/11/05 10:35:21;;;;;;;18.77;8.07;;;12.90;96.90;;;;;;5013360;28;20038;-75
2021/11/05 10:37:47;;;;;;;15.73;7.57;;;13.00;97.60;;;;;;5013258;28;20053;-75
2021/11/05 10:40:15;;;;;;;12.90;6.30;;;12.90;96.80;;;;;;5013605;28;20069;-72
2021/11/05 10:42:47;;;;;;;10.43;5.93;;;12.90;97.10;;;;;;5013072;28;20044;-73
2021/11/05 10:45:24;;;;;;;12.65;6.50;;;12.60;97.10;;;;;;5013318;28;20038;-74
2021/11/05 10:47:53;;;;;;;11.73;6.55;;;12.50;97.20;;;;;;5013270;28;20408;-73
2021/11/05 10:50:20;;;;;;;14.85;6.85;;;12.70;97.50;;;;;;5013518;28;20038;-73
2021/11/05 10:53:04;;;;;;;16.80;7.23;;;12.80;97.50;;;;;;5013200;28;20083;-73
2021/11/05 10:55:38;;;;;;;11.18;6.10;;;12.80;97.20;;;;;;5012189;28;20275;-75
2021/11/05 10:58:06;;;;;;;11.10;6.82;;;12.80;97.30;;;;;;4995694;28;20708;-74
2021/11/05 11:00:34;;;;;;;14.25;6.72;;;12.90;97.40;;;;;;5012845;28;20041;-73
2021/11/05 11:03:17;;;;;;;15.25;5.90;;;12.90;97.20;;;;;;5011823;28;20052;-71
2021/11/05 11:05:44;;;;;;;16.05;7.28;;;12.80;97.30;;;;;;5012689;28;20081;-72
2021/11/05 11:08:23;;;;;;;16.88;6.63;;;12.80;97.30;;;;;;5012670;28;20026;-74
2021/11/05 11:10:51;;;;;;;12.25;6.03;;;12.80;96.80;;;;;;5012952;28;20022;-74
2021/11/05 11:13:31;;;;;;;10.52;5.70;;;12.70;96.90;;;;;;5012043;28;20456;-75
2021/11/05 11:15:59;;;;;;;14.20;5.68;;;12.70;97.00;;;;;;5012593;28;20038;-72
2021/11/05 11:18:25;;;;;;;25.40;13.57;;;12.70;97.00;;;;;;5012348;28;20402;-71
2021/11/05 11:20:50;;;;;;;13.43;6.90;;;12.80;97.20;;;;;;5012598;28;20091;-74
2021/11/05 11:23:16;;;;;;;11.27;6.78;;;12.80;97.20;;;;;;5012527;28;20338;-74
2021/11/05 11:25:43;;;;;;;14.57;7.18;;;12.90;97.30;;;;;;5012517;28;20026;-71
2021/11/05 11:28:10;;;;;;;13.40;6.47;;;12.90;97.10;;;;;;5012740;28;20172;-74
2021/11/05 11:30:36;;;;;;;15.45;6.53;;;12.90;97.00;;;;;;5012601;28;20030;-71
2021/11/05 11:33:02;;;;;;;10.65;5.85;;;12.80;96.70;;;;;;5012296;28;20506;-70
2021/11/05 11:35:28;;;;;;;12.52;5.68;;;12.80;97.00;;;;;;5011708;28;20034;-71
2021/11/05 11:37:55;;;;;;;11.40;5.80;;;12.70;97.10;;;;;;5012175;28;20037;-73
2021/11/05 11:40:21;;;;;;;13.57;5.87;;;12.50;97.00;;;;;;5012850;28;20084;-72
2021/11/05 11:42:49;;;;;;;14.82;5.75;;;12.30;97.20;;;;;;5012298;28;20038;-72
2021/11/05 11:45:15;;;;;;;;;;;12.30;97.30;;;;;;5012654;28;20034;-72
2021/11/05 11:47:53;;;;;;;14.20;6.25;;;12.30;97.10;;;;;;5012008;28;19971;-72
2021/11/05 11:50:23;;;;;;;13.35;6.40;;;12.10;97.40;;;;;;5012159;28;20030;-71
2021/11/05 11:53:07;;;;;;;13.68;5.03;;;12.20;97.70;;;;;;5010949;28;20037;-71
2021/11/05 11:55:35;;;;;;;12.52;6.35;;;12.20;97.70;;;;;;5012474;28;20036;-72
2021/11/05 11:58:11;;;;;;;12.70;5.35;;;12.30;97.60;;;;;;5012187;28;20045;-72
2021/11/05 12:00:38;;;;;;;10.77;4.90;;;12.40;97.60;;;;;;5011610;28;20209;-70
2021/11/05 12:03:07;;;;;;;10.00;4.88;;;12.50;97.50;;;;;;5011898;28;20037;-67
2021/11/05 12:05:33;;;;;;;9.95;4.63;;;12.40;97.30;;;;;;4993734;28;20065;-67
2021/11/05 12:08:22;;;;;;;14.00;6.57;;;12.40;97.50;;;;;;5011619;28;20459;-69
2021/11/05 12:10:48;;;;;;;23.63;12.73;;;12.60;97.70;;;;;;5011623;28;20030;-71
2021/11/05 12:13:32;;;;;;;17.90;8.35;;;12.60;97.80;;;;;;5012024;28;20045;-73
2021/11/05 12:16:21;;;;;;;14.32;6.30;;;12.60;97.40;;;;;;5011502;28;20086;-74
2021/11/05 12:18:59;;;;;;;10.75;5.88;;;12.40;97.70;;;;;;5035758;28;20116;-67
2021/11/05 12:21:35;;;;;;;;;;;12.60;97.90;;;;;;5051728;28;20370;-72
2021/11/05 12:24:24;;;;;;;10.82;5.47;;;12.60;98.00;;;;;;5050925;28;19908;-72
2021/11/05 12:27:13;;;;;;;13.93;6.20;;;12.50;97.90;;;;;;5051304;28;20527;-71
2021/11/05 12:29:39;;;;;;;11.38;5.68;;;12.40;98.20;;;;;;5051355;28;20374;-72
2021/11/05 12:32:13;;;;;;;13.75;5.60;;;12.50;98.10;;;;;;5050978;28;20025;-73